Time;durP1;ratioP1;P1;durP2;ratioP2;P2;SDS_P1;SDS_P2;PMS_P1;PMS_P2;Temp;Humidity;BMP_temperature;BMP_pressure;BME280_temperature;BME280_humidity;BME280_pressure;Samples;Min_cycle;Max_cycle;Signal;HPM_P1;HPM_P2
2022/05/15 00:01:53;;;;;;;13.17;7.30;;;;;;;9.63;71.38;99108.46;2290232;77;21068;-79
2022/05/15 00:04:55;;;;;;;17.53;8.53;;;;;;;9.57;71.50;99106.62;2290714;78;20982;-79
2022/05/15 00:07:56;;;;;;;15.67;8.17;;;;;;;9.55;71.48;99108.73;2290548;77;21289;-79
2022/05/15 00:10:55;;;;;;;15.23;7.80;;;;;;;9.55;71.66;99114.83;2290575;77;20918;-79
2022/05/15 00:13:57;;;;;;;25.03;15.67;;;;;;;9.53;71.82;99107.38;2290564;77;20954;-79
2022/05/15 00:16:55;;;;;;;15.80;7.40;;;;;;;9.54;72.17;99111.77;2290495;77;20966;-78
2022/05/15 00:19:56;;;;;;;19.73;7.87;;;;;;;9.53;71.92;99109.97;2289195;77;20911;-79
2022/05/15 00:22:56;;;;;;;19.30;9.50;;;;;;;9.52;71.81;99115.16;2288436;78;20974;-79
2022/05/15 00:25:57;;;;;;;17.73;9.70;;;;;;;9.50;72.08;99106.42;2289982;78;20942;-79
2022/05/15 00:28:57;;;;;;;23.13;9.23;;;;;;;9.55;71.91;99114.83;2290674;78;20922;-78
2022/05/15 00:31:57;;;;;;;16.70;9.20;;;;;;;9.53;71.99;99108.67;2290154;76;21392;-78
2022/05/15 00:34:58;;;;;;;13.73;8.50;;;;;;;9.58;72.04;99107.07;2289959;78;21039;-78
2022/05/15 00:37:58;;;;;;;17.37;8.50;;;;;;;9.54;71.84;99108.28;2290510;78;20962;-78
2022/05/15 00:40:59;;;;;;;15.23;8.47;;;;;;;9.47;72.06;99112.88;2290338;77;20918;-79
2022/05/15 00:43:59;;;;;;;23.53;8.47;;;;;;;9.42;72.00;99117.12;2290564;77;20938;-78
2022/05/15 00:46:59;;;;;;;17.00;8.27;;;;;;;9.38;72.15;99108.78;2290784;78;20882;-79
2022/05/15 00:50:00;;;;;;;23.50;8.80;;;;;;;9.39;72.15;99110.55;2290588;77;20963;-79
2022/05/15 00:53:00;;;;;;;15.33;8.50;;;;;;;9.38;72.06;99111.39;2290638;78;20989;-79
2022/05/15 00:56:01;;;;;;;19.60;8.40;;;;;;;9.36;72.12;99117.87;2290625;77;20918;-79
2022/05/15 00:59:01;;;;;;;18.77;8.90;;;;;;;9.33;72.26;99111.72;2290855;78;20953;-79
2022/05/15 01:02:01;;;;;;;18.13;9.47;;;;;;;9.30;72.21;99113.84;2290541;78;20958;-79
2022/05/15 01:05:02;;;;;;;21.73;10.50;;;;;;;9.30;72.52;99112.53;2290815;77;21286;-79
2022/05/15 01:08:02;;;;;;;19.43;9.77;;;;;;;9.38;72.59;99112.27;2290942;77;20925;-79
2022/05/15 01:11:05;;;;;;;15.77;8.90;;;;;;;9.44;72.57;99114.12;2290703;77;20946;-79
2022/05/15 01:14:05;;;;;;;18.23;9.40;;;;;;;9.45;72.53;99116.76;2290853;78;21308;-79
2022/05/15 01:17:05;;;;;;;14.27;8.50;;;;;;;9.46;72.71;99113.30;2291585;78;20914;-79
2022/05/15 01:20:04;;;;;;;17.87;9.03;;;;;;;9.52;72.74;99119.95;2291622;77;20951;-79
2022/05/15 01:29:09;;;;;;;17.77;8.60;;;;;;;9.55;72.55;99116.13;2286478;78;20938;-79
2022/05/15 01:32:09;;;;;;;14.27;8.47;;;;;;;9.54;72.59;99114.38;2291058;77;21374;-79
2022/05/15 01:35:10;;;;;;;15.97;9.30;;;;;;;9.54;72.64;99110.46;2291050;77;20974;-79
2022/05/15 01:38:10;;;;;;;14.70;9.00;;;;;;;9.55;72.78;99114.83;2291140;78;20922;-79
2022/05/15 01:41:12;;;;;;;23.47;9.93;;;;;;;9.58;72.85;99114.02;2291108;78;20930;-79
2022/05/15 01:44:11;;;;;;;19.33;9.73;;;;;;;9.62;73.02;99125.37;2291165;77;20922;-79
2022/05/15 01:47:11;;;;;;;14.13;8.73;;;;;;;9.65;72.94;99130.65;2291286;78;20883;-79
2022/05/15 01:50:11;;;;;;;22.93;10.30;;;;;;;9.67;72.95;99123.31;2291382;77;21301;-79
2022/05/15 01:53:12;;;;;;;18.50;9.57;;;;;;;9.71;73.12;99128.16;2291283;77;21017;-79
2022/05/15 01:56:12;;;;;;;16.90;8.97;;;;;;;9.76;73.09;99133.92;2291406;77;20938;-79
2022/05/15 01:59:13;;;;;;;13.90;8.97;;;;;;;9.79;73.04;99129.19;2291527;77;20946;-79
2022/05/15 02:02:13;;;;;;;22.40;8.73;;;;;;;9.81;73.17;99128.80;2291260;78;21012;-79
2022/05/15 02:05:13;;;;;;;16.53;8.53;;;;;;;9.82;73.30;99122.31;2291545;78;20894;-79
2022/05/15 02:08:14;;;;;;;13.93;7.60;;;;;;;9.85;73.24;99121.48;2291254;77;20911;-79
2022/05/15 02:11:14;;;;;;;14.37;8.40;;;;;;;9.84;73.28;99114.09;2290776;77;20943;-79
2022/05/15 02:14:15;;;;;;;16.90;8.77;;;;;;;9.84;73.23;99123.64;2291202;78;20902;-79
2022/05/15 02:17:15;;;;;;;16.80;8.47;;;;;;;9.91;73.25;99125.52;2290797;78;21331;-79
2022/05/15 02:20:16;;;;;;;19.20;8.73;;;;;;;9.95;72.91;99121.23;2291330;77;20981;-79
2022/05/15 02:23:16;;;;;;;18.27;8.20;;;;;;;9.90;72.79;99122.45;2291124;77;20993;-79
2022/05/15 02:26:17;;;;;;;17.00;8.43;;;;;;;9.90;72.97;99126.36;2290964;77;20966;-79
2022/05/15 02:29:17;;;;;;;17.37;8.33;;;;;;;9.95;73.21;99129.05;2291257;78;20961;-79
2022/05/15 02:32:17;;;;;;;18.87;9.07;;;;;;;10.04;73.29;99131.41;2290887;77;21001;-79
2022/05/15 02:35:17;;;;;;;15.93;9.60;;;;;;;10.15;73.21;99127.27;2290997;77;20910;-79
2022/05/15 02:38:18;;;;;;;18.47;9.80;;;;;;;10.27;73.05;99128.37;2291087;78;20934;-79
2022/05/15 02:41:18;;;;;;;21.07;10.03;;;;;;;10.38;72.78;99134.66;2290922;77;21381;-79
2022/05/15 02:44:19;;;;;;;22.07;10.43;;;;;;;10.47;72.47;99126.59;2290946;77;20954;-79
2022/05/15 02:47:19;;;;;;;20.03;10.30;;;;;;;10.56;72.22;99126.28;2290956;78;20934;-79
2022/05/15 02:53:38;;;;;;;18.07;10.33;;;;;;;10.77;71.71;99134.45;2290894;77;21037;-79
2022/05/15 02:56:39;;;;;;;21.40;10.13;;;;;;;10.86;71.42;99141.13;2290936;77;20918;-80
2022/05/15 02:59:39;;;;;;;20.97;10.10;;;;;;;10.91;71.16;99135.97;2290971;77;20926;-79
2022/05/15 03:02:40;;;;;;;22.20;9.83;;;;;;;10.96;70.94;99139.10;2290650;78;21004;-80
2022/05/15 03:05:40;;;;;;;19.00;9.70;;;;;;;10.99;70.73;99139.58;2290648;78;20937;-79
2022/05/15 03:08:41;;;;;;;20.43;9.53;;;;;;;11.05;70.60;99146.20;2290562;77;20962;-79
2022/05/15 03:11:41;;;;;;;19.80;9.17;;;;;;;11.08;70.39;99152.77;2290662;78;20887;-79
2022/05/15 03:14:41;;;;;;;22.33;9.20;;;;;;;11.09;70.33;99149.30;2290706;78;20899;-80
2022/05/15 03:17:42;;;;;;;19.40;9.63;;;;;;;11.09;70.30;99144.08;2290101;77;20942;-79
2022/05/15 03:20:42;;;;;;;23.33;10.33;;;;;;;11.11;70.07;99145.86;2290394;77;20922;-78
2022/05/15 03:23:43;;;;;;;25.23;9.97;;;;;;;11.13;70.08;99144.57;2290388;77;21269;-79
2022/05/15 03:26:43;;;;;;;20.87;10.23;;;;;;;11.14;69.89;99154.16;2290383;77;20906;-79
2022/05/15 03:29:43;;;;;;;23.20;9.53;;;;;;;11.14;69.93;99156.78;2290356;78;20895;-79
2022/05/15 03:32:44;;;;;;;21.90;10.23;;;;;;;11.15;69.86;99158.53;2287612;77;20974;-80
2022/05/15 03:35:44;;;;;;;19.60;10.70;;;;;;;11.17;69.76;99160.31;2287128;78;20938;-79
2022/05/15 03:38:45;;;;;;;26.03;10.50;;;;;;;11.17;69.69;99160.73;2287198;78;20930;-79
2022/05/15 03:41:45;;;;;;;22.02;9.48;;;;;;;11.18;69.62;99163.80;2287019;78;20907;-80
2022/05/15 03:44:45;;;;;;;25.87;10.07;;;;;;;11.27;69.68;99166.58;2287392;78;20998;-79
2022/05/15 03:47:46;;;;;;;17.07;10.03;;;;;;;11.32;69.68;99170.56;2287193;78;20961;-79
2022/05/15 03:50:46;;;;;;;18.40;9.73;;;;;;;11.33;69.75;99168.41;2287324;78;20973;-79
2022/05/15 03:53:47;;;;;;;21.40;9.63;;;;;;;11.36;69.76;99182.39;2286785;78;20981;-80
2022/05/15 03:56:51;;;;;;;17.13;10.27;;;;;;;11.42;69.80;99182.47;2265943;78;21753;-80
2022/05/15 03:59:51;;;;;;;21.12;9.00;;;;;;;11.44;69.63;99181.19;2287567;78;20927;-80
2022/05/15 04:02:52;;;;;;;22.10;9.50;;;;;;;11.38;69.76;99184.59;2287228;78;20954;-79
2022/05/15 04:05:52;;;;;;;19.40;9.17;;;;;;;11.40;69.75;99184.62;2287302;78;20915;-80
2022/05/15 04:08:52;;;;;;;89.00;62.30;;;;;;;11.37;69.96;99185.88;2287378;78;20867;-79
2022/05/15 04:11:53;;;;;;;37.10;20.55;;;;;;;11.42;69.92;99196.85;2286823;78;20910;-80
2022/05/15 04:14:53;;;;;;;17.57;10.03;;;;;;;11.42;69.77;99199.89;2285961;78;20950;-80
2022/05/15 04:17:54;;;;;;;24.85;10.18;;;;;;;11.44;69.81;99203.41;2286206;78;20903;-80
2022/05/15 04:20:54;;;;;;;19.90;9.08;;;;;;;11.54;69.87;99204.41;2286327;78;20950;-79
2022/05/15 04:23:54;;;;;;;20.27;9.28;;;;;;;11.68;69.65;99201.55;2286086;78;21036;-79
2022/05/15 04:26:55;;;;;;;18.62;9.35;;;;;;;11.80;69.75;99203.05;2286619;78;20948;-80
2022/05/15 04:29:55;;;;;;;17.67;8.80;;;;;;;11.98;69.46;99211.55;2287428;78;21302;-80
2022/05/15 04:32:56;;;;;;;19.17;9.18;;;;;;;12.17;68.71;99211.37;2282647;78;20978;-80
2022/05/15 04:35:56;;;;;;;15.90;8.88;;;;;;;12.36;67.92;99206.34;2280396;78;20942;-79
2022/05/15 04:38:57;;;;;;;21.62;9.03;;;;;;;12.54;67.42;99200.41;2280601;78;21290;-79
2022/05/15 04:42:00;;;;;;;22.58;9.08;;;;;;;12.69;67.03;99205.80;2280680;78;20951;-80
2022/05/15 04:45:00;;;;;;;18.90;9.00;;;;;;;12.88;66.54;99209.45;2278890;78;20915;-79
2022/05/15 04:48:01;;;;;;;20.05;9.18;;;;;;;13.07;66.16;99210.51;2278976;78;21404;-79
2022/05/15 04:51:01;;;;;;;19.07;9.10;;;;;;;13.32;65.85;99205.92;2279994;78;20966;-79
2022/05/15 04:54:01;;;;;;;21.97;8.98;;;;;;;13.53;65.25;99213.04;2279693;78;20997;-79
2022/05/15 04:57:02;;;;;;;23.87;8.68;;;;;;;13.70;64.74;99207.88;2279638;78;21393;-80
2022/05/15 05:00:02;;;;;;;19.42;8.75;;;;;;;13.94;64.50;99218.52;2279736;78;20930;-80
2022/05/15 05:03:03;;;;;;;17.05;7.87;;;;;;;14.16;64.09;99214.67;2279414;78;20962;-80
2022/05/15 05:06:03;;;;;;;15.10;7.75;;;;;;;14.33;63.24;99213.84;2279153;78;21250;-80
2022/05/15 05:09:03;;;;;;;16.77;8.13;;;;;;;14.47;62.94;99212.59;2278626;78;21360;-80
2022/05/15 05:12:04;;;;;;;16.73;7.55;;;;;;;14.53;61.60;99224.42;2278688;78;21080;-80
2022/05/15 05:15:04;;;;;;;24.05;8.55;;;;;;;14.42;61.64;99222.22;2278877;78;20939;-80
2022/05/15 05:18:05;;;;;;;14.43;7.40;;;;;;;14.29;61.83;99224.34;2278867;78;20926;-80
2022/05/15 05:21:05;;;;;;;16.17;7.55;;;;;;;14.31;61.82;99224.78;2279332;78;21021;-80
2022/05/15 05:24:08;;;;;;;21.75;7.65;;;;;;;14.35;61.59;99232.23;2279963;78;20994;-81
2022/05/15 05:27:08;;;;;;;13.10;6.67;;;;;;;14.51;60.90;99233.18;2280004;78;20962;-80
2022/05/15 05:30:08;;;;;;;20.50;6.60;;;;;;;14.54;60.47;99236.69;2279759;78;21014;-80
2022/05/15 05:33:09;;;;;;;20.30;5.95;;;;;;;14.64;60.00;99237.14;2267718;78;21416;-81
2022/05/15 05:36:09;;;;;;;14.50;5.10;;;;;;;14.74;59.18;99243.33;2262509;78;20919;-80
2022/05/15 05:39:10;;;;;;;13.50;5.95;;;;;;;14.86;58.83;99243.34;2262371;78;20922;-81
2022/05/15 05:42:10;;;;;;;12.75;5.37;;;;;;;14.84;58.61;99242.46;2262167;78;20997;-81
2022/05/15 05:45:10;;;;;;;14.20;5.78;;;;;;;14.71;58.99;99248.98;2262338;78;20946;-81
2022/05/15 05:48:11;;;;;;;17.02;5.35;;;;;;;14.69;58.42;99238.91;2262202;78;21301;-81
2022/05/15 05:51:12;;;;;;;18.17;5.10;;;;;;;14.70;57.74;99252.48;2262129;78;20926;-80
2022/05/15 05:54:12;;;;;;;11.40;5.12;;;;;;;14.63;57.53;99244.59;2261830;78;21040;-80
2022/05/15 05:57:12;;;;;;;15.32;4.95;;;;;;;14.73;58.14;99250.73;2262237;78;21407;-81
2022/05/15 06:00:12;;;;;;;10.82;4.62;;;;;;;14.81;57.54;99249.03;2262186;78;20946;-80
2022/05/15 06:06:32;;;;;;;14.90;4.90;;;;;;;14.97;57.51;99245.98;2262580;78;21335;-81
2022/05/15 06:09:32;;;;;;;9.23;4.65;;;;;;;15.11;56.55;99244.66;2261238;78;20970;-81
2022/05/15 06:12:33;;;;;;;13.85;5.25;;;;;;;15.13;56.32;99246.42;2261873;78;20962;-81
2022/05/15 06:15:33;;;;;;;11.28;4.92;;;;;;;15.19;56.30;99249.05;2260230;78;21009;-81
2022/05/15 06:18:34;;;;;;;11.97;4.20;;;;;;;15.32;56.55;99249.91;2260967;78;20989;-82
2022/05/15 06:21:34;;;;;;;17.27;4.22;;;;;;;15.42;55.53;99254.29;2260822;78;21051;-81
2022/05/15 06:24:34;;;;;;;11.38;4.58;;;;;;;15.42;55.11;99258.67;2260637;78;21036;-80
2022/05/15 06:27:35;;;;;;;16.30;3.52;;;;;;;15.46;55.14;99256.04;2260985;78;20961;-81
2022/05/15 06:30:37;;;;;;;11.30;4.17;;;;;;;15.62;54.11;99264.85;2261752;78;21266;-80
2022/05/15 06:33:36;;;;;;;11.03;3.80;;;;;;;15.77;54.17;99260.87;2282860;78;21022;-79
2022/05/15 06:36:36;;;;;;;11.75;3.70;;;;;;;15.95;53.33;99258.62;2289819;77;21258;-81
2022/05/15 06:39:36;;;;;;;11.10;3.60;;;;;;;16.10;53.28;99261.64;2289929;78;20923;-80
2022/05/15 06:42:37;;;;;;;8.18;3.55;;;;;;;16.22;52.31;99262.47;2289757;77;20994;-80
2022/05/15 06:45:37;;;;;;;9.00;3.52;;;;;;;16.31;52.64;99264.63;2289995;78;20949;-80
2022/05/15 06:48:39;;;;;;;9.03;3.45;;;;;;;16.36;51.66;99266.80;2289887;78;21001;-80
2022/05/15 06:51:38;;;;;;;8.83;3.33;;;;;;;16.44;52.27;99259.30;2289786;78;21286;-80
2022/05/15 06:54:38;;;;;;;9.05;3.33;;;;;;;16.65;52.10;99259.69;2289235;77;20922;-80
2022/05/15 06:57:39;;;;;;;9.98;3.12;;;;;;;16.86;51.25;99258.22;2289923;77;20962;-80
2022/05/15 07:00:39;;;;;;;7.58;3.17;;;;;;;17.04;50.78;99258.53;2289582;78;21311;-80
2022/05/15 07:03:39;;;;;;;10.70;3.42;;;;;;;17.03;50.71;99258.10;2289966;77;20963;-80
2022/05/15 07:06:40;;;;;;;11.25;3.37;;;;;;;16.91;50.25;99263.47;2289502;78;20946;-80
2022/05/15 07:09:40;;;;;;;9.20;3.15;;;;;;;17.08;49.33;99256.75;2289664;78;20923;-80
2022/05/15 07:12:41;;;;;;;14.65;3.50;;;;;;;17.32;49.19;99259.19;2289781;77;20878;-80
2022/05/15 07:15:41;;;;;;;10.05;2.98;;;;;;;17.25;48.43;99260.56;2289673;78;21273;-79
2022/05/15 07:18:41;;;;;;;10.63;3.35;;;;;;;17.25;47.14;99255.30;2289544;77;20950;-81
2022/05/15 07:21:42;;;;;;;9.20;3.83;;;;;;;17.20;47.35;99262.80;2289380;78;20954;-80
2022/05/15 07:24:42;;;;;;;7.72;2.92;;;;;;;17.26;46.78;99266.27;2289222;77;21313;-79
2022/05/15 07:27:43;;;;;;;7.65;3.10;;;;;;;17.15;46.66;99259.77;2289002;78;21005;-80
2022/05/15 07:30:43;;;;;;;7.45;3.10;;;;;;;17.17;46.84;99262.83;2288202;78;20981;-80
2022/05/15 07:33:43;;;;;;;8.50;3.10;;;;;;;17.35;47.50;99255.67;2287419;77;21001;-80
2022/05/15 07:36:44;;;;;;;7.08;3.20;;;;;;;17.42;47.19;99262.20;2286546;78;20941;-80
2022/05/15 07:39:44;;;;;;;14.87;3.95;;;;;;;17.52;46.88;99253.76;2286301;78;20957;-79
2022/05/15 07:42:45;;;;;;;10.15;3.50;;;;;;;17.73;47.06;99248.73;2286442;78;20958;-80
2022/05/15 07:45:45;;;;;;;7.90;3.40;;;;;;;18.03;47.31;99246.20;2285567;78;21358;-79
2022/05/15 07:48:46;;;;;;;6.65;3.12;;;;;;;18.34;46.35;99257.30;2285465;78;20954;-79
2022/05/15 07:51:46;;;;;;;12.65;4.20;;;;;;;18.40;45.08;99261.18;2284980;78;21021;-79
2022/05/15 07:54:46;;;;;;;7.80;3.77;;;;;;;18.22;44.42;99261.41;2284532;78;21029;-79
2022/05/15 07:57:46;;;;;;;9.43;3.75;;;;;;;18.34;45.36;99260.81;2285130;78;21029;-79
2022/05/15 08:00:47;;;;;;;11.18;3.62;;;;;;;18.43;45.26;99258.50;2285275;78;21843;-79
2022/05/15 08:03:47;;;;;;;6.00;3.22;;;;;;;18.72;45.07;99253.71;2285626;78;20957;-80
2022/05/15 08:10:07;;;;;;;11.45;2.75;;;;;;;18.91;42.23;99255.64;2286827;78;20923;-78
2022/05/15 08:13:07;;;;;;;10.88;2.90;;;;;;;18.95;41.36;99257.34;2286298;78;20931;-79
2022/05/15 08:16:08;;;;;;;4.55;2.50;;;;;;;18.72;40.43;99271.35;2285942;78;21314;-79
2022/05/15 08:25:46;;;;;;;9.98;4.22;;;;;;;18.61;39.47;99267.95;2286345;78;21369;-78
2022/05/15 08:28:46;;;;;;;6.55;2.75;;;;;;;18.65;40.58;99265.72;2286162;78;20935;-78
2022/05/15 08:31:47;;;;;;;8.80;3.10;;;;;;;18.90;39.81;99260.50;2286553;78;20963;-79
2022/05/15 08:34:47;;;;;;;5.50;3.08;;;;;;;18.87;39.80;99255.26;2286088;78;20989;-78
2022/05/15 08:37:47;;;;;;;4.75;2.42;;;;;;;18.99;39.72;99256.84;2286415;78;20911;-78
2022/05/15 08:40:48;;;;;;;8.63;2.42;;;;;;;19.08;39.84;99262.89;2286084;78;20947;-79
2022/05/15 08:43:49;;;;;;;7.87;2.45;;;;;;;19.27;38.47;99262.59;2286392;78;20954;-79
2022/05/15 08:46:49;;;;;;;4.50;2.10;;;;;;;19.33;37.91;99263.36;2286472;78;20965;-78
2022/05/15 08:49:49;;;;;;;5.83;2.62;;;;;;;19.50;37.21;99267.50;2286349;78;20959;-81
2022/05/15 08:52:49;;;;;;;7.75;2.42;;;;;;;19.48;36.97;99262.23;2286221;78;20930;-79
2022/05/15 08:55:50;;;;;;;6.53;2.50;;;;;;;19.58;36.18;99261.65;2286196;78;20990;-79
2022/05/15 08:58:53;;;;;;;4.67;1.70;;;;;;;19.47;36.38;99263.13;2286457;78;20949;-78
2022/05/15 09:01:53;;;;;;;6.05;2.02;;;;;;;19.51;35.67;99262.17;2286362;78;20965;-79
2022/05/15 09:04:53;;;;;;;7.28;2.25;;;;;;;19.50;36.18;99263.52;2286471;78;20907;-79
2022/05/15 09:07:54;;;;;;;4.75;2.20;;;;;;;19.58;36.14;99260.33;2286351;78;20891;-78
2022/05/15 09:10:54;;;;;;;5.05;1.70;;;;;;;19.66;36.53;99255.77;2284583;78;21368;-78
2022/05/15 09:13:55;;;;;;;5.53;2.83;;;;;;;19.73;35.18;99260.92;2284700;78;21361;-78
2022/05/15 09:16:55;;;;;;;6.15;2.98;;;;;;;19.81;35.24;99255.48;2284565;78;20930;-79
2022/05/15 09:19:56;;;;;;;3.55;1.85;;;;;;;19.93;36.26;99264.97;2284568;78;20985;-79
2022/05/15 09:22:56;;;;;;;3.67;2.47;;;;;;;19.85;34.27;99258.94;2286393;78;20969;-79
2022/05/15 09:25:56;;;;;;;4.62;2.37;;;;;;;19.65;34.94;99272.11;2285995;78;21360;-79
2022/05/15 09:29:01;;;;;;;3.85;1.60;;;;;;;19.61;34.73;99271.73;2286411;78;20887;-79
2022/05/15 09:31:59;;;;;;;5.08;1.92;;;;;;;19.58;34.81;99274.89;2286730;78;20911;-79
2022/05/15 09:35:00;;;;;;;9.48;2.15;;;;;;;19.58;35.11;99260.33;2289800;78;20997;-78
2022/05/15 09:44:38;;;;;;;13.78;2.25;;;;;;;19.69;35.81;99264.52;2288945;77;21030;-80
2022/05/15 09:47:38;;;;;;;5.45;2.25;;;;;;;19.61;36.01;99277.48;2287973;78;20961;-79
2022/05/15 09:50:40;;;;;;;4.00;2.05;;;;;;;19.70;35.57;99267.59;2288290;77;20949;-78
2022/05/15 09:53:40;;;;;;;5.53;1.90;;;;;;;19.72;35.88;99283.01;2288216;78;20899;-79
2022/05/15 09:56:40;;;;;;;2.55;1.57;;;;;;;19.61;35.40;99275.70;2288003;77;21333;-78
2022/05/15 09:59:40;;;;;;;4.85;2.02;;;;;;;19.68;36.33;99269.85;2288539;78;20919;-79
2022/05/15 10:02:41;;;;;;;4.90;1.72;;;;;;;19.73;35.71;99289.18;2289735;77;20970;-78
2022/05/15 10:05:41;;;;;;;4.28;1.70;;;;;;;19.67;35.18;99275.59;2289095;78;21305;-79
2022/05/15 10:08:41;;;;;;;5.85;2.27;;;;;;;19.91;35.73;99274.72;2289772;77;20907;-79
2022/05/15 10:11:42;;;;;;;5.83;2.20;;;;;;;19.93;35.61;99275.56;2289744;77;20931;-79
2022/05/15 10:14:42;;;;;;;4.55;2.37;;;;;;;19.97;34.74;99275.96;2289644;77;20867;-78
2022/05/15 10:17:42;;;;;;;6.30;1.95;;;;;;;19.87;34.52;99275.68;2289853;77;20935;-78
2022/05/15 10:20:43;;;;;;;6.28;2.05;;;;;;;19.91;34.73;99290.62;2289630;78;20953;-78
2022/05/15 10:23:43;;;;;;;4.22;1.60;;;;;;;20.14;34.30;99279.61;2288128;77;21045;-80
2022/05/15 10:26:44;;;;;;;5.33;1.62;;;;;;;20.26;33.14;99300.11;2286714;77;20930;-78
2022/05/15 10:29:45;;;;;;;5.30;1.92;;;;;;;20.40;33.85;99291.04;2286615;78;21448;-78
2022/05/15 10:32:44;;;;;;;4.70;2.20;;;;;;;20.44;34.64;99286.09;2287365;77;21040;-79
2022/05/15 10:35:45;;;;;;;6.00;2.15;;;;;;;20.59;34.09;99273.83;2287500;77;21008;-78
2022/05/15 10:38:45;;;;;;;7.37;2.30;;;;;;;20.39;32.20;99276.00;2288673;77;21286;-78
2022/05/15 10:41:46;;;;;;;9.23;2.15;;;;;;;20.44;32.57;99272.38;2289487;77;20966;-79
2022/05/15 10:44:46;;;;;;;4.83;1.85;;;;;;;20.32;33.18;99278.78;2289773;77;20914;-79
2022/05/15 10:47:46;;;;;;;6.92;2.27;;;;;;;20.18;33.69;99263.61;2289642;77;21412;-78
2022/05/15 10:50:47;;;;;;;4.67;1.85;;;;;;;20.23;34.38;99267.04;2289797;77;20902;-79
2022/05/15 10:57:21;;;;;;;5.58;1.92;;;;;;;19.90;35.26;99278.27;2289845;77;20984;-80
2022/05/15 11:00:22;;;;;;;7.78;2.35;;;;;;;19.88;35.24;99257.56;2289719;77;21364;-79
2022/05/15 11:03:23;;;;;;;4.42;2.20;;;;;;;19.93;35.22;99255.70;2289983;78;20980;-80
2022/05/15 11:06:22;;;;;;;7.37;2.17;;;;;;;20.23;34.81;99256.89;2288672;78;20946;-80
2022/05/15 11:09:23;;;;;;;3.45;1.67;;;;;;;20.37;33.28;99276.03;2288079;77;21420;-80
2022/05/15 11:12:23;;;;;;;8.90;2.22;;;;;;;20.31;32.85;99258.93;2288206;77;20986;-81
2022/05/15 11:15:24;;;;;;;2.80;1.62;;;;;;;20.40;33.00;99278.66;2288512;78;20918;-81
2022/05/15 11:18:24;;;;;;;3.65;2.10;;;;;;;20.35;33.53;99266.78;2288572;77;21340;-81
2022/05/15 11:21:24;;;;;;;4.92;2.00;;;;;;;20.49;32.81;99268.30;2288936;77;21044;-80
2022/05/15 11:24:25;;;;;;;4.80;2.02;;;;;;;20.48;33.00;99259.48;2290111;77;21014;-80
2022/05/15 11:27:25;;;;;;;4.33;1.85;;;;;;;20.41;32.73;99248.58;2290063;77;21274;-80
2022/05/15 11:30:26;;;;;;;3.33;1.65;;;;;;;20.50;32.90;99246.19;2290066;77;20919;-79
2022/05/15 11:33:26;;;;;;;4.58;1.60;;;;;;;20.55;32.81;99245.63;2289237;77;20915;-80
2022/05/15 11:36:30;;;;;;;3.33;1.67;;;;;;;20.64;33.79;99237.02;2286653;78;20907;-80
2022/05/15 11:39:27;;;;;;;5.53;1.57;;;;;;;20.79;33.22;99232.27;2286790;78;20962;-81
2022/05/15 11:42:27;;;;;;;7.30;1.60;;;;;;;20.76;32.41;99233.21;2286823;78;20977;-80
2022/05/15 11:45:32;;;;;;;5.35;2.15;;;;;;;20.70;31.58;99239.11;2286701;78;20955;-80
2022/05/15 11:48:31;;;;;;;3.77;1.67;;;;;;;20.82;32.46;99241.06;2286797;78;20922;-80
2022/05/15 11:51:32;;;;;;;4.75;1.92;;;;;;;20.88;31.26;99236.94;2286719;78;20875;-80
2022/05/15 11:54:33;;;;;;;5.55;1.50;;;;;;;20.87;32.23;99241.83;2286319;78;21464;-79
2022/05/15 11:57:34;;;;;;;3.98;1.50;;;;;;;21.02;33.04;99241.04;2286494;78;20943;-78
2022/05/15 12:00:33;;;;;;;2.87;1.45;;;;;;;21.11;31.54;99229.75;2286642;78;20899;-79
2022/05/15 12:03:33;;;;;;;3.62;1.82;;;;;;;20.92;31.36;99243.05;2286047;78;21370;-79
2022/05/15 12:06:34;;;;;;;3.12;1.37;;;;;;;20.75;31.02;99247.38;2286610;78;20950;-80
2022/05/15 12:09:34;;;;;;;4.42;1.60;;;;;;;20.65;30.43;99242.73;2286786;78;21008;-79
2022/05/15 12:12:35;;;;;;;7.08;1.47;;;;;;;20.75;30.43;99250.03;2286514;78;21309;-78
2022/05/15 12:15:35;;;;;;;3.45;1.50;;;;;;;20.62;31.65;99242.81;2286502;78;20994;-79
2022/05/15 12:18:35;;;;;;;3.55;1.60;;;;;;;20.67;31.38;99240.05;2286811;78;20930;-78
2022/05/15 12:21:36;;;;;;;3.70;1.72;;;;;;;20.65;32.16;99233.45;2286744;78;21361;-78
2022/05/15 12:24:37;;;;;;;5.40;1.67;;;;;;;20.89;31.86;99242.66;2286568;78;21012;-79
2022/05/15 12:27:37;;;;;;;4.85;1.40;;;;;;;20.93;31.63;99236.38;2286576;78;21231;-80
2022/05/15 12:30:37;;;;;;;2.42;1.30;;;;;;;20.98;31.77;99231.83;2286805;78;20953;-79
2022/05/15 12:33:40;;;;;;;3.40;1.42;;;;;;;21.02;31.03;99228.64;2287089;78;20963;-80
2022/05/15 12:36:38;;;;;;;4.30;1.50;;;;;;;20.79;30.03;99241.09;2289370;77;20902;-79
2022/05/15 12:39:38;;;;;;;2.40;1.37;;;;;;;20.66;30.19;99238.31;2290093;77;20971;-80
2022/05/15 12:42:39;;;;;;;4.17;1.12;;;;;;;20.66;31.27;99222.39;2290103;78;21314;-79
2022/05/15 12:45:39;;;;;;;4.58;1.22;;;;;;;20.84;30.92;99214.49;2289894;78;20949;-80
2022/05/15 12:48:41;;;;;;;2.05;1.07;;;;;;;20.91;31.21;99210.33;2289722;78;20958;-79
2022/05/15 12:51:40;;;;;;;3.77;1.27;;;;;;;21.01;31.00;99210.98;2289784;78;21337;-79
2022/05/15 12:54:40;;;;;;;3.02;1.40;;;;;;;21.11;30.21;99207.19;2290014;77;21021;-79
2022/05/15 12:57:40;;;;;;;4.80;1.40;;;;;;;20.98;30.28;99197.78;2289967;77;20918;-79
2022/05/15 13:00:42;;;;;;;4.75;1.40;;;;;;;21.11;30.79;99198.35;2289940;78;21251;-79
2022/05/15 13:03:41;;;;;;;12.13;6.37;;;;;;;21.44;30.84;99182.03;2289976;77;20981;-80
2022/05/15 13:06:46;;;;;;;3.25;1.10;;;;;;;21.18;28.99;99194.63;2290325;77;20950;-82
2022/05/15 13:09:43;;;;;;;4.67;2.10;;;;;;;20.72;29.52;99206.79;2290109;77;20903;-81
2022/05/15 13:12:42;;;;;;;4.58;1.45;;;;;;;20.71;29.38;99206.38;2290426;77;20907;-81
2022/05/15 13:15:43;;;;;;;3.75;1.40;;;;;;;20.62;29.48;99199.50;2290305;77;20975;-78
2022/05/15 13:18:43;;;;;;;5.45;1.70;;;;;;;20.57;30.44;99205.36;2290176;77;20915;-82
2022/05/15 13:21:44;;;;;;;3.52;1.40;;;;;;;20.53;30.82;99187.33;2289805;78;21001;-79
2022/05/15 13:24:44;;;;;;;6.17;1.75;;;;;;;20.74;30.78;99195.23;2289873;78;21017;-79
2022/05/15 13:27:46;;;;;;;2.80;1.30;;;;;;;20.94;30.44;99194.33;2290130;78;20993;-80
2022/05/15 13:30:45;;;;;;;3.47;1.02;;;;;;;21.03;30.42;99187.05;2290166;77;21157;-79
2022/05/15 13:33:45;;;;;;;3.17;1.05;;;;;;;21.04;30.61;99183.03;2289249;78;21342;-79
2022/05/15 13:36:46;;;;;;;2.85;1.15;;;;;;;21.13;31.05;99185.45;2286874;78;20911;-79
2022/05/15 13:43:35;;;;;;;2.05;0.80;;;;;;;21.23;30.06;99180.81;2286815;78;21049;-79
2022/05/15 13:46:14;;;;;;;2.95;1.20;;;;;;;21.31;29.62;99184.14;2286630;78;21359;-80
2022/05/15 13:49:15;;;;;;;2.42;1.10;;;;;;;21.36;29.76;99182.23;2286471;78;20934;-79
2022/05/15 13:52:15;;;;;;;2.60;1.30;;;;;;;21.37;28.92;99175.14;2286969;78;20934;-79
2022/05/15 13:55:16;;;;;;;5.10;1.67;;;;;;;21.32;28.61;99183.23;2286765;78;21429;-79
2022/05/15 13:58:16;;;;;;;5.00;1.55;;;;;;;21.30;29.24;99185.05;2286739;78;20907;-79
2022/05/15 14:01:16;;;;;;;5.87;1.45;;;;;;;21.40;29.29;99180.38;2286932;78;20990;-79
2022/05/15 14:04:17;;;;;;;12.70;1.42;;;;;;;21.43;29.22;99177.64;2285846;78;21322;-82
2022/05/15 14:07:17;;;;;;;4.92;1.42;;;;;;;21.43;29.12;99173.20;2286658;78;20934;-81
2022/05/15 14:10:18;;;;;;;4.03;3.65;;;;;;;21.36;29.13;99178.71;2286883;78;20930;-81
2022/05/15 14:13:18;;;;;;;3.08;1.35;;;;;;;21.22;28.65;99177.71;2286844;78;21290;-82
2022/05/15 14:16:19;;;;;;;2.80;1.37;;;;;;;21.46;27.94;99171.78;2286683;78;20918;-80
2022/05/15 14:19:19;;;;;;;4.05;1.60;;;;;;;21.48;28.63;99164.65;2287163;78;20887;-81
2022/05/15 14:22:19;;;;;;;4.28;1.25;;;;;;;21.36;29.68;99170.29;2286758;78;21342;-82
2022/05/15 14:25:20;;;;;;;3.05;1.70;;;;;;;21.45;29.30;99170.50;2286654;78;20979;-81
2022/05/15 14:28:20;;;;;;;5.83;2.35;;;;;;;21.25;29.72;99165.72;2287080;78;20926;-81
2022/05/15 14:31:22;;;;;;;2.90;1.20;;;;;;;21.49;29.92;99169.50;2286894;78;21327;-82
2022/05/15 14:34:21;;;;;;;3.80;1.12;;;;;;;21.90;28.95;99159.08;2286743;78;21016;-82
2022/05/15 14:37:22;;;;;;;3.92;1.70;;;;;;;22.37;28.17;99152.37;2287127;78;20911;-79
2022/05/15 14:40:21;;;;;;;5.83;1.32;;;;;;;21.81;28.43;99169.52;2286997;78;21302;-81